Paris, Missouri
Current Conditions -  °F | °C
As of 2:55 PM on Thursday 18 Dec 2014 (Local Time) from KHAE Reporting Station
Overcast Overcast  
Wind Chill:   Ceiling: 1000
Heat Index:   Visibility: 10mi
Dew Point: -3°   Wind: 3mph
Humidity: 80%   Direction: 60°ENE
Pressure: 30.23"   Gusts: NA
Location:  39.48°N, 92°W
Report Text: KHAE 182055Z AUTO 06003KT 10SM BKN010 OVC043 00/M03 A3023 RMK AO2
Loading
Personal Weather Stations






























Interactive Weather Map New forecast layout! Learn more

10-Day Weather Forecast

Advertisements
Track Severe Weather on mobile